createdAt,value
2023-08-03T00:00:34.411Z,1.48
2023-08-03T00:03:01.437Z,0.90
2023-08-03T00:05:28.451Z,1.20
2023-08-03T00:07:55.126Z,1.10
2023-08-03T00:10:22.465Z,0.95
2023-08-03T00:12:50.606Z,0.90
2023-08-03T00:15:17.504Z,1.20
2023-08-03T00:17:44.793Z,1.35
2023-08-03T00:20:11.693Z,1.00
2023-08-03T00:22:38.663Z,1.48
2023-08-03T00:25:05.551Z,1.13
2023-08-03T00:27:33.390Z,1.48
2023-08-03T00:30:00.050Z,1.10
2023-08-03T00:32:26.746Z,1.23
2023-08-03T00:34:54.647Z,1.05
2023-08-03T00:37:21.235Z,0.90
2023-08-03T00:39:47.873Z,1.40
2023-08-03T00:42:14.513Z,1.13
2023-08-03T00:44:41.201Z,1.20
2023-08-03T00:47:07.873Z,1.20
2023-08-03T00:49:34.546Z,1.40
2023-08-03T00:52:01.235Z,1.85
2023-08-03T00:54:27.864Z,1.00
2023-08-03T00:56:54.850Z,0.98
2023-08-03T00:59:21.570Z,1.02
2023-08-03T01:01:48.213Z,0.90
2023-08-03T01:04:14.864Z,1.00
2023-08-03T01:06:41.664Z,0.77
2023-08-03T01:09:08.427Z,1.13
2023-08-03T01:11:35.439Z,1.00
2023-08-03T01:14:02.185Z,0.90
2023-08-03T01:16:29.117Z,1.40
2023-08-03T01:18:56.130Z,0.80
2023-08-03T01:21:23.412Z,0.73
2023-08-03T01:23:50.033Z,1.60
2023-08-03T01:26:16.724Z,1.30
2023-08-03T01:28:43.360Z,1.40
2023-08-03T01:31:10.052Z,0.75
2023-08-03T01:33:36.759Z,0.90
2023-08-03T01:36:04.059Z,1.10
2023-08-03T01:38:30.687Z,0.90
2023-08-03T01:40:57.280Z,0.70
2023-08-03T01:43:23.947Z,0.95
2023-08-03T01:45:50.611Z,1.05
2023-08-03T01:48:17.251Z,0.95
2023-08-03T01:50:43.887Z,0.95
2023-08-03T01:53:10.521Z,1.00
2023-08-03T01:55:37.225Z,1.00
2023-08-03T01:58:03.860Z,0.85
2023-08-03T02:00:30.477Z,0.93
2023-08-03T02:02:57.050Z,0.73
2023-08-03T02:05:23.688Z,0.80
2023-08-03T02:07:57.167Z,0.95
2023-08-03T02:10:24.778Z,1.17
2023-08-03T02:12:51.936Z,1.77
2023-08-03T02:15:18.983Z,1.10
2023-08-03T02:17:46.005Z,1.00
2023-08-03T02:20:13.057Z,1.00
2023-08-03T02:22:40.039Z,1.25
2023-08-03T02:25:07.245Z,0.80
2023-08-03T02:27:33.906Z,0.88
2023-08-03T02:30:00.572Z,0.98
2023-08-03T02:32:28.720Z,1.00
2023-08-03T02:34:56.326Z,1.00
2023-08-03T02:37:22.986Z,0.90
2023-08-03T02:39:49.572Z,1.10
2023-08-03T02:42:16.195Z,1.20
2023-08-03T02:44:42.820Z,1.27
2023-08-03T02:47:09.526Z,1.40
2023-08-03T02:49:36.137Z,1.20
2023-08-03T02:52:34.188Z,1.40
2023-08-03T02:55:00.945Z,1.50
2023-08-03T02:57:27.517Z,1.58
2023-08-03T02:59:54.108Z,1.98
2023-08-03T03:02:21.100Z,2.40
2023-08-03T03:04:47.823Z,2.60
2023-08-03T03:07:14.470Z,2.70
2023-08-03T03:09:41.162Z,2.88
2023-08-03T03:12:08.343Z,2.75
2023-08-03T03:14:37.717Z,3.30
2023-08-03T03:17:04.934Z,3.30
2023-08-03T03:19:31.626Z,3.00
2023-08-03T03:21:58.321Z,3.20
2023-08-03T03:24:24.890Z,2.92
2023-08-03T03:26:51.472Z,3.28
2023-08-03T03:29:18.142Z,3.60
2023-08-03T03:31:45.005Z,3.70
2023-08-03T03:34:11.875Z,3.72
2023-08-03T03:36:38.453Z,4.20
2023-08-03T03:39:05.105Z,4.07
2023-08-03T03:41:31.726Z,4.90
2023-08-03T03:43:58.421Z,4.38
2023-08-03T03:46:25.089Z,4.60
2023-08-03T03:48:51.831Z,4.00
2023-08-03T03:51:21.231Z,3.75
2023-08-03T03:53:47.863Z,3.90
2023-08-03T03:56:14.591Z,3.58
2023-08-03T03:58:41.488Z,3.33
2023-08-03T04:01:08.208Z,3.20
2023-08-03T04:03:34.893Z,2.80
2023-08-03T04:06:01.479Z,2.85
2023-08-03T04:08:28.167Z,2.70
2023-08-03T04:10:54.750Z,2.88
2023-08-03T04:13:21.332Z,3.05
2023-08-03T04:15:47.964Z,2.88
2023-08-03T04:18:16.007Z,3.10
2023-08-03T04:20:42.637Z,3.13
2023-08-03T04:23:09.219Z,3.17
2023-08-03T04:25:36.112Z,2.95
2023-08-03T04:28:02.747Z,3.08
2023-08-03T04:30:30.044Z,3.10
2023-08-03T04:32:56.648Z,3.03
2023-08-03T04:35:23.505Z,3.90
2023-08-03T04:37:50.108Z,3.75
2023-08-03T04:40:16.705Z,3.75
2023-08-03T04:42:43.303Z,3.80
2023-08-03T04:45:10.432Z,3.70
2023-08-03T04:47:37.080Z,3.90
2023-08-03T04:50:03.743Z,4.60
2023-08-03T04:52:30.361Z,3.95
2023-08-03T04:54:57.002Z,4.00
2023-08-03T04:57:23.616Z,4.28
2023-08-03T04:59:50.270Z,4.88
2023-08-03T05:02:16.852Z,4.82
2023-08-03T05:04:43.433Z,5.93
2023-08-03T05:07:09.999Z,6.07
2023-08-03T05:09:37.096Z,6.47
2023-08-03T05:12:03.875Z,6.95
2023-08-03T05:14:31.219Z,6.72
2023-08-03T05:16:57.837Z,6.70
2023-08-03T05:19:24.512Z,7.03
2023-08-03T05:21:51.225Z,6.65
2023-08-03T05:24:17.802Z,6.43
2023-08-03T05:26:44.385Z,7.60
2023-08-03T05:29:11.030Z,6.75
2023-08-03T05:31:37.633Z,6.63
2023-08-03T05:34:04.318Z,6.50
2023-08-03T05:36:30.918Z,5.85
2023-08-03T05:38:57.642Z,5.68
2023-08-03T05:41:26.804Z,5.75
2023-08-03T05:43:53.554Z,6.50
2023-08-03T05:46:21.699Z,5.20
2023-08-03T05:48:50.622Z,5.22
2023-08-03T05:51:28.314Z,4.80
2023-08-03T05:53:56.233Z,4.97
2023-08-03T05:56:23.667Z,4.78
2023-08-03T05:58:51.363Z,5.18
2023-08-03T06:01:22.459Z,4.20
2023-08-03T06:03:52.308Z,4.63
2023-08-03T06:06:20.254Z,3.88
2023-08-03T06:08:54.623Z,4.25
2023-08-03T06:11:41.853Z,4.70
2023-08-03T06:14:16.816Z,4.35
2023-08-03T06:16:45.682Z,3.95
2023-08-03T06:19:12.471Z,4.05
2023-08-03T06:21:39.138Z,4.15
2023-08-03T06:24:06.117Z,3.78
2023-08-03T06:26:34.451Z,3.78
2023-08-03T06:29:03.168Z,4.10
2023-08-03T06:31:35.694Z,3.47
2023-08-03T06:34:03.482Z,4.50
2023-08-03T06:36:30.337Z,3.40
2023-08-03T06:38:57.833Z,3.17
2023-08-03T06:41:26.241Z,3.25
2023-08-03T06:43:53.622Z,3.15
2023-08-03T06:46:20.443Z,3.00
2023-08-03T06:48:47.863Z,3.10
2023-08-03T06:51:14.724Z,3.30
2023-08-03T06:53:42.099Z,3.45
2023-08-03T06:56:09.030Z,3.00
2023-08-03T06:58:37.861Z,3.20
2023-08-03T07:01:04.597Z,3.10
2023-08-03T07:03:31.721Z,3.17
2023-08-03T07:05:58.719Z,3.60
2023-08-03T07:08:25.320Z,3.65
2023-08-03T07:10:51.950Z,3.28
2023-08-03T07:13:18.584Z,3.58
2023-08-03T07:15:45.423Z,3.40
2023-08-03T07:18:13.345Z,3.22
2023-08-03T07:20:40.054Z,3.42
2023-08-03T07:23:08.813Z,3.83
2023-08-03T07:25:36.143Z,3.17
2023-08-03T07:28:02.947Z,3.05
2023-08-03T07:30:32.439Z,3.35
2023-08-03T07:32:59.972Z,3.45
2023-08-03T07:35:26.672Z,3.33
2023-08-03T07:37:53.330Z,3.20
2023-08-03T07:40:20.069Z,3.05
2023-08-03T07:42:46.811Z,3.50
2023-08-03T07:45:13.460Z,3.25
2023-08-03T07:47:40.078Z,3.00
2023-08-03T07:50:07.525Z,2.85
2023-08-03T07:52:35.109Z,2.53
2023-08-03T07:55:01.762Z,2.20
2023-08-03T07:57:28.358Z,2.20
2023-08-03T07:59:55.518Z,2.10
2023-08-03T08:02:23.059Z,2.15
2023-08-03T08:04:52.931Z,1.98
2023-08-03T08:07:19.931Z,1.83
2023-08-03T08:09:46.903Z,1.77
2023-08-03T08:12:13.791Z,1.80
2023-08-03T08:14:40.496Z,1.73
2023-08-03T08:17:13.432Z,1.60
2023-08-03T08:19:41.199Z,1.55
2023-08-03T08:22:17.209Z,1.30
2023-08-03T08:24:45.265Z,1.25
2023-08-03T08:27:12.587Z,1.40
2023-08-03T08:29:39.591Z,1.20
2023-08-03T08:32:07.014Z,1.20
2023-08-03T08:34:33.788Z,1.33
2023-08-03T08:37:00.492Z,1.52
2023-08-03T08:39:28.939Z,1.48
2023-08-03T08:41:55.616Z,2.00
2023-08-03T08:44:22.258Z,1.67
2023-08-03T08:46:49.505Z,2.00
2023-08-03T08:54:19.532Z,2.08
2023-08-03T09:01:52.884Z,2.50
2023-08-03T09:04:33.776Z,2.30
2023-08-03T09:07:01.996Z,2.08
2023-08-03T09:09:33.374Z,2.28
2023-08-03T09:12:00.439Z,2.53
2023-08-03T09:14:27.351Z,2.65
2023-08-03T09:16:54.219Z,2.80
2023-08-03T09:19:40.097Z,3.03
2023-08-03T09:25:07.655Z,2.50
2023-08-03T09:32:38.011Z,2.88
2023-08-03T09:35:26.887Z,3.10
2023-08-03T09:37:55.620Z,2.38
2023-08-03T09:42:51.558Z,2.95
2023-08-03T09:47:51.050Z,2.35
2023-08-03T09:50:17.865Z,2.47
2023-08-03T09:52:51.399Z,2.22
2023-08-03T09:55:29.631Z,2.20
2023-08-03T09:58:07.454Z,2.40
2023-08-03T10:00:34.968Z,2.30
2023-08-03T10:03:08.797Z,2.72
2023-08-03T10:05:40.068Z,2.53
2023-08-03T10:08:07.781Z,2.97
2023-08-03T10:10:38.211Z,3.07
2023-08-03T10:13:08.404Z,3.45
2023-08-03T10:15:38.081Z,3.22
2023-08-03T10:18:07.005Z,3.30
2023-08-03T10:23:07.817Z,3.25
2023-08-03T10:25:34.406Z,3.97
2023-08-03T10:28:14.564Z,4.57
2023-08-03T10:31:05.980Z,3.65
2023-08-03T10:34:05.213Z,3.40
2023-08-03T10:36:42.120Z,3.38
2023-08-03T10:39:12.885Z,3.57
2023-08-03T10:41:47.539Z,3.33
2023-08-03T10:44:14.478Z,3.15
2023-08-03T10:46:42.370Z,3.80
2023-08-03T10:49:24.621Z,3.70
2023-08-03T10:52:14.700Z,4.15
2023-08-03T10:54:41.367Z,4.05
2023-08-03T10:57:10.053Z,3.97
2023-08-03T10:59:57.860Z,4.35
2023-08-03T11:02:32.984Z,4.38
2023-08-03T11:05:08.559Z,4.68
2023-08-03T11:07:38.001Z,4.40
2023-08-03T11:10:11.164Z,4.97
2023-08-03T11:12:38.961Z,5.20
2023-08-03T11:15:07.086Z,4.57
2023-08-03T11:17:35.546Z,5.40
2023-08-03T11:22:31.005Z,5.35
2023-08-03T11:25:02.240Z,6.00
2023-08-03T11:27:28.902Z,5.70
2023-08-03T11:29:56.394Z,5.90
2023-08-03T11:32:30.977Z,5.78
2023-08-03T11:35:05.738Z,6.10
2023-08-03T11:37:33.966Z,6.13
2023-08-03T11:40:02.039Z,5.53
2023-08-03T11:42:29.394Z,6.05
2023-08-03T11:44:57.283Z,5.28
2023-08-03T11:47:24.377Z,5.05
2023-08-03T11:49:55.986Z,4.80
2023-08-03T11:52:23.325Z,4.65
2023-08-03T11:54:50.480Z,4.20
2023-08-03T11:57:35.680Z,4.32
2023-08-03T12:00:03.895Z,5.03
2023-08-03T12:02:40.722Z,4.57
2023-08-03T12:07:38.246Z,4.75
2023-08-03T12:10:17.474Z,5.30
2023-08-03T12:15:12.190Z,4.78
2023-08-03T12:17:39.428Z,3.97
2023-08-03T12:20:06.944Z,3.38
2023-08-03T12:22:34.382Z,3.28
2023-08-03T12:25:01.079Z,3.42
2023-08-03T12:27:27.699Z,3.13
2023-08-03T12:29:54.277Z,2.70
2023-08-03T12:32:21.085Z,2.63
2023-08-03T12:34:47.673Z,2.33
2023-08-03T12:37:16.771Z,2.42
2023-08-03T12:39:43.726Z,2.40
2023-08-03T12:42:10.394Z,2.15
2023-08-03T12:44:36.988Z,2.40
2023-08-03T12:47:08.832Z,2.10
2023-08-03T12:49:37.627Z,2.20
2023-08-03T12:52:04.616Z,2.28
2023-08-03T12:54:31.656Z,2.00
2023-08-03T12:56:58.335Z,2.42
2023-08-03T12:59:25.053Z,2.47
2023-08-03T13:01:52.726Z,2.00
2023-08-03T13:04:19.419Z,2.00
2023-08-03T13:06:46.306Z,1.85
2023-08-03T13:09:13.126Z,1.98
2023-08-03T13:11:39.727Z,1.80
2023-08-03T13:14:06.422Z,1.70
2023-08-03T13:16:33.276Z,1.48
2023-08-03T13:18:59.969Z,1.30
2023-08-03T13:21:26.616Z,1.30
2023-08-03T13:23:53.258Z,1.25
2023-08-03T13:26:19.936Z,1.20
2023-08-03T13:28:51.568Z,2.13
2023-08-03T13:31:19.826Z,3.40
2023-08-03T13:33:46.616Z,8.02
2023-08-03T13:36:13.238Z,1.70
2023-08-03T13:38:39.838Z,1.40
2023-08-03T13:41:06.678Z,1.20
2023-08-03T13:43:34.081Z,1.55
2023-08-03T13:46:00.868Z,1.48
2023-08-03T13:48:28.301Z,1.75
2023-08-03T13:50:56.495Z,1.55
2023-08-03T13:53:24.627Z,1.60
2023-08-03T13:55:51.325Z,1.70
2023-08-03T13:58:30.301Z,1.90
2023-08-03T14:01:14.333Z,1.42
2023-08-03T14:03:41.696Z,2.00
2023-08-03T14:21:18.524Z,2.83
2023-08-03T14:24:01.739Z,2.33
2023-08-03T14:26:28.721Z,2.70
2023-08-03T14:31:24.944Z,2.30
2023-08-03T14:33:51.572Z,2.10
2023-08-03T14:36:18.247Z,1.67
2023-08-03T14:38:44.880Z,1.95
2023-08-03T14:41:16.274Z,1.40
2023-08-03T14:43:44.780Z,2.03
2023-08-03T14:46:15.781Z,1.52
2023-08-03T14:48:47.569Z,1.15
2023-08-03T14:53:44.133Z,1.30
2023-08-03T14:58:40.474Z,1.20
2023-08-03T15:01:08.763Z,1.40
2023-08-03T15:03:38.280Z,1.30
2023-08-03T15:06:18.338Z,1.40
2023-08-03T15:08:45.531Z,0.80
2023-08-03T15:11:12.785Z,0.82
2023-08-03T15:13:39.744Z,0.88
2023-08-03T15:18:43.199Z,1.30
2023-08-03T15:21:24.167Z,1.17
2023-08-03T15:23:53.767Z,1.63
2023-08-03T15:26:24.404Z,1.63
2023-08-03T15:28:58.317Z,1.73
2023-08-03T15:31:26.282Z,1.70
2023-08-03T15:33:53.658Z,1.73
2023-08-03T15:36:35.100Z,1.75
2023-08-03T15:41:30.993Z,2.10
2023-08-03T15:43:58.991Z,2.30
2023-08-03T15:46:38.148Z,2.10
2023-08-03T15:49:13.003Z,1.80
2023-08-03T15:51:46.975Z,2.30
2023-08-03T15:54:20.626Z,2.22
2023-08-03T15:56:48.334Z,1.80
2023-08-03T15:59:15.380Z,1.60
2023-08-03T16:01:42.116Z,1.75
2023-08-03T16:04:08.806Z,1.60
2023-08-03T16:06:35.421Z,1.60
2023-08-03T16:09:02.023Z,1.70
2023-08-03T16:11:51.492Z,1.98
2023-08-03T16:14:15.260Z,2.03
2023-08-03T16:16:41.975Z,1.13
2023-08-03T16:19:08.727Z,1.80
2023-08-03T16:21:35.924Z,1.40
2023-08-03T16:24:03.133Z,1.60
2023-08-03T16:26:30.070Z,2.00
2023-08-03T16:28:56.984Z,1.30
2023-08-03T16:31:26.475Z,1.58
2023-08-03T16:33:54.576Z,1.77
2023-08-03T16:36:37.944Z,1.55
2023-08-03T16:39:04.799Z,1.60
2023-08-03T16:41:31.666Z,1.50
2023-08-03T16:43:58.359Z,1.92
2023-08-03T16:46:25.170Z,1.88
2023-08-03T16:48:51.882Z,1.55
2023-08-03T16:51:18.609Z,1.25
2023-08-03T16:53:45.297Z,1.25
2023-08-03T16:56:12.468Z,1.50
2023-08-03T16:58:39.123Z,1.70
2023-08-03T17:01:05.794Z,2.03
2023-08-03T17:03:32.514Z,1.80
2023-08-03T17:05:59.203Z,2.30
2023-08-03T17:08:26.052Z,2.20
2023-08-03T17:10:52.771Z,1.70
2023-08-03T17:13:19.354Z,2.05
2023-08-03T17:15:46.616Z,2.58
2023-08-03T17:18:13.847Z,2.03
2023-08-03T17:20:40.526Z,2.22
2023-08-03T17:23:08.349Z,1.83
2023-08-03T17:25:35.178Z,1.73
2023-08-03T17:28:01.943Z,1.80
2023-08-03T17:30:29.138Z,2.00
2023-08-03T17:32:55.813Z,1.85
2023-08-03T17:35:22.450Z,2.60
2023-08-03T17:37:49.037Z,1.83
2023-08-03T17:40:15.782Z,2.00
2023-08-03T17:42:42.440Z,1.88
2023-08-03T17:45:09.792Z,2.20
2023-08-03T17:47:36.384Z,2.72
2023-08-03T17:50:06.926Z,2.08
2023-08-03T17:52:33.628Z,2.10
2023-08-03T17:55:00.384Z,1.80
2023-08-03T17:57:29.248Z,1.52
2023-08-03T17:59:57.455Z,1.50
2023-08-03T18:02:24.282Z,1.52
2023-08-03T18:04:52.247Z,1.60
2023-08-03T18:07:19.291Z,1.55
2023-08-03T18:09:45.969Z,1.52
2023-08-03T18:12:13.117Z,1.60
2023-08-03T18:14:39.810Z,1.45
2023-08-03T18:17:06.738Z,1.50
2023-08-03T18:19:33.434Z,1.65
2023-08-03T18:22:00.138Z,1.10
2023-08-03T18:24:26.851Z,1.40
2023-08-03T18:26:53.498Z,1.40
2023-08-03T18:29:20.077Z,1.48
2023-08-03T18:31:46.713Z,1.55
2023-08-03T18:34:13.368Z,1.40
2023-08-03T18:36:40.171Z,1.50
2023-08-03T18:39:07.069Z,1.60
2023-08-03T18:41:33.683Z,1.80
2023-08-03T18:44:00.311Z,1.92
2023-08-03T18:46:27.173Z,1.52
2023-08-03T18:48:55.255Z,1.50
2023-08-03T18:51:23.114Z,1.77
2023-08-03T18:53:51.663Z,1.60
2023-08-03T18:58:54.898Z,1.65
2023-08-03T19:01:22.098Z,1.95
2023-08-03T19:03:50.127Z,2.22
2023-08-03T19:06:17.689Z,1.88
2023-08-03T19:08:45.553Z,1.95
2023-08-03T19:11:13.024Z,1.88
2023-08-03T19:13:41.566Z,1.85
2023-08-03T19:18:34.774Z,1.80
2023-08-03T19:21:01.376Z,2.08
2023-08-03T19:23:28.205Z,2.55
2023-08-03T19:25:56.776Z,1.90
2023-08-03T19:30:50.637Z,2.63
2023-08-03T19:33:17.407Z,2.50
2023-08-03T19:35:45.600Z,2.85
2023-08-03T19:38:13.098Z,2.58
2023-08-03T19:40:40.406Z,2.67
2023-08-03T19:43:07.737Z,3.40
2023-08-03T19:45:34.941Z,2.75
2023-08-03T19:48:01.687Z,2.42
2023-08-03T19:50:29.117Z,2.90
2023-08-03T19:55:29.630Z,3.50
2023-08-03T20:10:35.172Z,3.05
2023-08-03T20:20:32.259Z,3.55
2023-08-03T20:22:58.923Z,3.55
2023-08-03T20:25:26.274Z,3.25
2023-08-03T20:27:53.757Z,4.78
2023-08-03T20:30:20.534Z,3.63
2023-08-03T20:32:47.195Z,3.28
2023-08-03T20:35:13.809Z,4.03
2023-08-03T20:37:42.311Z,4.18
2023-08-03T20:40:09.375Z,3.90
2023-08-03T20:45:06.309Z,3.63
2023-08-03T20:52:32.059Z,4.10
2023-08-03T20:54:58.701Z,4.15
2023-08-03T20:57:25.348Z,3.83
2023-08-03T20:59:52.078Z,3.92
2023-08-03T21:02:18.748Z,3.90
2023-08-03T21:04:49.702Z,4.10
2023-08-03T21:07:16.610Z,3.75
2023-08-03T21:10:50.313Z,3.75
2023-08-03T21:12:32.134Z,4.35
2023-08-03T21:14:58.815Z,3.90
2023-08-03T21:17:25.436Z,4.82
2023-08-03T21:19:52.116Z,4.10
2023-08-03T21:22:19.315Z,5.00
2023-08-03T21:24:46.020Z,3.63
2023-08-03T21:27:12.679Z,4.95
2023-08-03T21:29:39.328Z,4.28
2023-08-03T21:32:06.443Z,4.20
2023-08-03T21:34:33.120Z,4.57
2023-08-03T21:36:59.748Z,5.55
2023-08-03T21:39:26.403Z,4.47
2023-08-03T21:41:53.274Z,4.82
2023-08-03T21:44:19.874Z,4.18
2023-08-03T21:46:46.491Z,4.65
2023-08-03T21:49:13.129Z,5.63
2023-08-03T21:51:39.796Z,5.97
2023-08-03T21:54:06.494Z,5.32
2023-08-03T21:56:33.102Z,5.45
2023-08-03T21:58:59.789Z,4.38
2023-08-03T22:01:28.107Z,4.70
2023-08-03T22:06:22.258Z,4.90
2023-08-03T22:08:49.485Z,4.78
2023-08-03T22:11:19.904Z,5.05
2023-08-03T22:13:47.058Z,4.25
2023-08-03T22:16:14.700Z,4.90
2023-08-03T22:18:41.375Z,4.77
2023-08-03T22:21:09.084Z,4.50
2023-08-03T22:23:35.751Z,4.73
2023-08-03T22:26:02.361Z,4.03
2023-08-03T22:28:28.993Z,4.13
2023-08-03T22:30:55.620Z,4.03
2023-08-03T22:33:25.110Z,3.60
2023-08-03T22:35:51.751Z,4.43
2023-08-03T22:38:18.366Z,4.30
2023-08-03T22:40:45.012Z,4.32
2023-08-03T22:43:11.614Z,3.70
2023-08-03T22:45:41.652Z,4.53
2023-08-03T22:48:12.437Z,4.57
2023-08-03T22:50:39.950Z,3.85
2023-08-03T22:53:06.718Z,4.05
2023-08-03T22:55:34.743Z,4.22
2023-08-03T22:58:02.286Z,4.00
2023-08-03T23:00:32.592Z,4.13
2023-08-03T23:02:59.351Z,3.88
2023-08-03T23:05:26.321Z,4.40
2023-08-03T23:07:52.956Z,3.70
2023-08-03T23:10:19.690Z,4.40
2023-08-03T23:12:46.284Z,4.50
2023-08-03T23:15:12.889Z,3.50
2023-08-03T23:17:39.528Z,3.53
2023-08-03T23:20:06.823Z,3.90
2023-08-03T23:22:33.544Z,3.97
2023-08-03T23:25:00.248Z,3.90
2023-08-03T23:27:26.851Z,4.40
2023-08-03T23:29:53.487Z,3.40
2023-08-03T23:32:20.073Z,4.00
2023-08-03T23:34:46.905Z,3.50
2023-08-03T23:37:13.544Z,4.32
2023-08-03T23:39:40.154Z,4.07
2023-08-03T23:42:06.998Z,4.28
2023-08-03T23:44:33.583Z,4.30
2023-08-03T23:47:00.206Z,3.63
2023-08-03T23:49:26.782Z,3.55
2023-08-03T23:51:53.390Z,4.05
2023-08-03T23:54:19.975Z,3.58
2023-08-03T23:56:46.601Z,4.50
2023-08-03T23:59:13.261Z,4.20
